sensor_id;sensor_type;location;lat;lon;timestamp;pressure;altitude;pressure_sealevel;temperature
11849;BMP180;5983;49.966;8.052;2023-02-28T00:01:26;101615.00;;;1.80
11849;BMP180;5983;49.966;8.052;2023-02-28T00:03:53;101624.00;;;1.80
11849;BMP180;5983;49.966;8.052;2023-02-28T00:06:21;101616.00;;;1.80
11849;BMP180;5983;49.966;8.052;2023-02-28T00:08:49;101618.00;;;1.70
11849;BMP180;5983;49.966;8.052;2023-02-28T00:11:16;101619.00;;;1.70
11849;BMP180;5983;49.966;8.052;2023-02-28T00:13:46;101621.00;;;1.70
11849;BMP180;5983;49.966;8.052;2023-02-28T00:16:16;101617.00;;;1.70
11849;BMP180;5983;49.966;8.052;2023-02-28T00:18:43;101614.00;;;1.60
11849;BMP180;5983;49.966;8.052;2023-02-28T00:21:10;101614.00;;;1.70
11849;BMP180;5983;49.966;8.052;2023-02-28T00:23:37;101612.00;;;1.70
11849;BMP180;5983;49.966;8.052;2023-02-28T00:26:05;101613.00;;;1.70
11849;BMP180;5983;49.966;8.052;2023-02-28T00:28:32;101613.00;;;1.70
11849;BMP180;5983;49.966;8.052;2023-02-28T00:31:01;101616.00;;;1.70
11849;BMP180;5983;49.966;8.052;2023-02-28T00:33:28;101609.00;;;1.80
11849;BMP180;5983;49.966;8.052;2023-02-28T00:36:04;101608.00;;;1.80
11849;BMP180;5983;49.966;8.052;2023-02-28T00:38:31;101607.00;;;1.80
11849;BMP180;5983;49.966;8.052;2023-02-28T00:40:58;101607.00;;;1.80
11849;BMP180;5983;49.966;8.052;2023-02-28T00:43:31;101607.00;;;1.90
11849;BMP180;5983;49.966;8.052;2023-02-28T00:45:59;101614.00;;;1.90
11849;BMP180;5983;49.966;8.052;2023-02-28T00:48:27;101612.00;;;1.90
11849;BMP180;5983;49.966;8.052;2023-02-28T00:50:55;101607.00;;;1.90
11849;BMP180;5983;49.966;8.052;2023-02-28T00:53:21;101607.00;;;1.90
11849;BMP180;5983;49.966;8.052;2023-02-28T00:55:49;101609.00;;;1.90
11849;BMP180;5983;49.966;8.052;2023-02-28T00:58:16;101600.00;;;1.90
11849;BMP180;5983;49.966;8.052;2023-02-28T01:00:43;101601.00;;;1.90
11849;BMP180;5983;49.966;8.052;2023-02-28T01:03:16;101601.00;;;1.90
11849;BMP180;5983;49.966;8.052;2023-02-28T01:05:43;101600.00;;;1.90
11849;BMP180;5983;49.966;8.052;2023-02-28T01:08:11;101601.00;;;1.90
11849;BMP180;5983;49.966;8.052;2023-02-28T01:10:39;101599.00;;;1.90
11849;BMP180;5983;49.966;8.052;2023-02-28T01:13:06;101612.00;;;1.90
11849;BMP180;5983;49.966;8.052;2023-02-28T01:15:33;101601.00;;;1.90
11849;BMP180;5983;49.966;8.052;2023-02-28T01:18:00;101613.00;;;2.00
11849;BMP180;5983;49.966;8.052;2023-02-28T01:20:29;101603.00;;;2.00
11849;BMP180;5983;49.966;8.052;2023-02-28T01:22:55;101598.00;;;1.90
11849;BMP180;5983;49.966;8.052;2023-02-28T01:25:22;101601.00;;;2.00
11849;BMP180;5983;49.966;8.052;2023-02-28T01:27:49;101598.00;;;2.00
11849;BMP180;5983;49.966;8.052;2023-02-28T01:30:16;101596.00;;;2.00
11849;BMP180;5983;49.966;8.052;2023-02-28T01:32:43;101601.00;;;2.00
11849;BMP180;5983;49.966;8.052;2023-02-28T01:35:10;101591.00;;;2.00
11849;BMP180;5983;49.966;8.052;2023-02-28T01:37:39;101597.00;;;2.00
11849;BMP180;5983;49.966;8.052;2023-02-28T01:40:08;101596.00;;;2.00
11849;BMP180;5983;49.966;8.052;2023-02-28T01:42:35;101598.00;;;2.00
11849;BMP180;5983;49.966;8.052;2023-02-28T01:45:19;101598.00;;;1.90
11849;BMP180;5983;49.966;8.052;2023-02-28T01:47:50;101590.00;;;1.90
11849;BMP180;5983;49.966;8.052;2023-02-28T01:50:23;101583.00;;;1.90
11849;BMP180;5983;49.966;8.052;2023-02-28T01:52:55;101584.00;;;1.80
11849;BMP180;5983;49.966;8.052;2023-02-28T01:55:25;101585.00;;;1.80
11849;BMP180;5983;49.966;8.052;2023-02-28T01:57:58;101597.00;;;1.70
11849;BMP180;5983;49.966;8.052;2023-02-28T02:00:30;101587.00;;;1.70
11849;BMP180;5983;49.966;8.052;2023-02-28T02:03:01;101587.00;;;1.60
11849;BMP180;5983;49.966;8.052;2023-02-28T02:05:31;101583.00;;;1.60
11849;BMP180;5983;49.966;8.052;2023-02-28T02:08:05;101585.00;;;1.50
11849;BMP180;5983;49.966;8.052;2023-02-28T02:10:36;101587.00;;;1.50
11849;BMP180;5983;49.966;8.052;2023-02-28T02:13:30;101586.00;;;1.50
11849;BMP180;5983;49.966;8.052;2023-02-28T02:16:14;101587.00;;;1.40
11849;BMP180;5983;49.966;8.052;2023-02-28T02:18:50;101576.00;;;1.40
11849;BMP180;5983;49.966;8.052;2023-02-28T02:28:17;101568.00;;;1.20
11849;BMP180;5983;49.966;8.052;2023-02-28T02:31:18;101575.00;;;1.20
11849;BMP180;5983;49.966;8.052;2023-02-28T02:37:26;101578.00;;;1.20
11849;BMP180;5983;49.966;8.052;2023-02-28T02:40:04;101568.00;;;1.20
11849;BMP180;5983;49.966;8.052;2023-02-28T02:42:44;101573.00;;;1.10
11849;BMP180;5983;49.966;8.052;2023-02-28T02:45:18;101576.00;;;1.10
11849;BMP180;5983;49.966;8.052;2023-02-28T02:47:46;101563.00;;;1.10
11849;BMP180;5983;49.966;8.052;2023-02-28T02:50:21;101564.00;;;1.10
11849;BMP180;5983;49.966;8.052;2023-02-28T02:52:55;101569.00;;;1.10
11849;BMP180;5983;49.966;8.052;2023-02-28T02:55:24;101565.00;;;1.10
11849;BMP180;5983;49.966;8.052;2023-02-28T02:57:57;101570.00;;;1.00
11849;BMP180;5983;49.966;8.052;2023-02-28T03:00:31;101568.00;;;0.90
11849;BMP180;5983;49.966;8.052;2023-02-28T03:03:00;101577.00;;;1.00
11849;BMP180;5983;49.966;8.052;2023-02-28T03:05:35;101585.00;;;0.90
11849;BMP180;5983;49.966;8.052;2023-02-28T03:08:07;101573.00;;;0.90
11849;BMP180;5983;49.966;8.052;2023-02-28T03:10:38;101575.00;;;0.90
11849;BMP180;5983;49.966;8.052;2023-02-28T03:16:43;101571.00;;;0.90
11849;BMP180;5983;49.966;8.052;2023-02-28T03:19:40;101569.00;;;0.80
11849;BMP180;5983;49.966;8.052;2023-02-28T03:22:33;101575.00;;;0.80
11849;BMP180;5983;49.966;8.052;2023-02-28T03:25:09;101570.00;;;0.80
11849;BMP180;5983;49.966;8.052;2023-02-28T03:27:43;101568.00;;;0.80
11849;BMP180;5983;49.966;8.052;2023-02-28T03:30:25;101567.00;;;0.70
11849;BMP180;5983;49.966;8.052;2023-02-28T03:32:58;101572.00;;;0.70
11849;BMP180;5983;49.966;8.052;2023-02-28T03:35:33;101566.00;;;0.70
11849;BMP180;5983;49.966;8.052;2023-02-28T03:38:06;101565.00;;;0.70
11849;BMP180;5983;49.966;8.052;2023-02-28T03:40:39;101575.00;;;0.70
11849;BMP180;5983;49.966;8.052;2023-02-28T03:43:18;101559.00;;;0.60
11849;BMP180;5983;49.966;8.052;2023-02-28T03:45:49;101563.00;;;0.60
11849;BMP180;5983;49.966;8.052;2023-02-28T03:48:22;101574.00;;;0.60
11849;BMP180;5983;49.966;8.052;2023-02-28T03:50:55;101563.00;;;0.60
11849;BMP180;5983;49.966;8.052;2023-02-28T03:53:29;101564.00;;;0.60
11849;BMP180;5983;49.966;8.052;2023-02-28T03:56:05;101563.00;;;0.60
11849;BMP180;5983;49.966;8.052;2023-02-28T03:58:39;101563.00;;;0.60
11849;BMP180;5983;49.966;8.052;2023-02-28T04:01:14;101565.00;;;0.50
11849;BMP180;5983;49.966;8.052;2023-02-28T04:03:42;101569.00;;;0.50
11849;BMP180;5983;49.966;8.052;2023-02-28T04:06:16;101569.00;;;0.50
11849;BMP180;5983;49.966;8.052;2023-02-28T04:08:44;101571.00;;;0.40
11849;BMP180;5983;49.966;8.052;2023-02-28T04:11:21;101568.00;;;0.40
11849;BMP180;5983;49.966;8.052;2023-02-28T04:13:49;101572.00;;;0.40
11849;BMP180;5983;49.966;8.052;2023-02-28T04:16:16;101572.00;;;0.40
11849;BMP180;5983;49.966;8.052;2023-02-28T04:18:43;101568.00;;;0.40
11849;BMP180;5983;49.966;8.052;2023-02-28T04:21:11;101574.00;;;0.40
11849;BMP180;5983;49.966;8.052;2023-02-28T04:23:38;101579.00;;;0.40
11849;BMP180;5983;49.966;8.052;2023-02-28T04:26:05;101581.00;;;0.40
11849;BMP180;5983;49.966;8.052;2023-02-28T04:28:34;101578.00;;;0.40
11849;BMP180;5983;49.966;8.052;2023-02-28T04:31:03;101577.00;;;0.40
11849;BMP180;5983;49.966;8.052;2023-02-28T04:33:32;101570.00;;;0.40
11849;BMP180;5983;49.966;8.052;2023-02-28T04:36:00;101572.00;;;0.40
11849;BMP180;5983;49.966;8.052;2023-02-28T04:38:29;101574.00;;;0.40
11849;BMP180;5983;49.966;8.052;2023-02-28T04:40:58;101567.00;;;0.40
11849;BMP180;5983;49.966;8.052;2023-02-28T04:43:26;101570.00;;;0.40
11849;BMP180;5983;49.966;8.052;2023-02-28T04:45:55;101575.00;;;0.40
11849;BMP180;5983;49.966;8.052;2023-02-28T04:48:23;101569.00;;;0.40
11849;BMP180;5983;49.966;8.052;2023-02-28T04:50:51;101571.00;;;0.30
11849;BMP180;5983;49.966;8.052;2023-02-28T04:53:19;101566.00;;;0.40
11849;BMP180;5983;49.966;8.052;2023-02-28T04:55:46;101567.00;;;0.30
11849;BMP180;5983;49.966;8.052;2023-02-28T04:58:13;101562.00;;;0.30
11849;BMP180;5983;49.966;8.052;2023-02-28T05:00:40;101567.00;;;0.30
11849;BMP180;5983;49.966;8.052;2023-02-28T05:03:08;101572.00;;;0.30
11849;BMP180;5983;49.966;8.052;2023-02-28T05:05:35;101569.00;;;0.20
11849;BMP180;5983;49.966;8.052;2023-02-28T05:08:02;101573.00;;;0.30
11849;BMP180;5983;49.966;8.052;2023-02-28T05:10:31;101561.00;;;0.30
11849;BMP180;5983;49.966;8.052;2023-02-28T05:12:58;101572.00;;;0.30
11849;BMP180;5983;49.966;8.052;2023-02-28T05:15:25;101578.00;;;0.20
11849;BMP180;5983;49.966;8.052;2023-02-28T05:17:52;101570.00;;;0.20
11849;BMP180;5983;49.966;8.052;2023-02-28T05:20:20;101572.00;;;0.10
11849;BMP180;5983;49.966;8.052;2023-02-28T05:22:49;101568.00;;;0.10
11849;BMP180;5983;49.966;8.052;2023-02-28T05:25:19;101579.00;;;0.10
11849;BMP180;5983;49.966;8.052;2023-02-28T05:27:47;101578.00;;;0.10
11849;BMP180;5983;49.966;8.052;2023-02-28T05:30:15;101578.00;;;0.10
11849;BMP180;5983;49.966;8.052;2023-02-28T05:32:42;101579.00;;;0.00
11849;BMP180;5983;49.966;8.052;2023-02-28T05:35:10;101577.00;;;0.10
11849;BMP180;5983;49.966;8.052;2023-02-28T05:37:39;101579.00;;;0.10
11849;BMP180;5983;49.966;8.052;2023-02-28T05:40:08;101574.00;;;0.00
11849;BMP180;5983;49.966;8.052;2023-02-28T05:42:36;101575.00;;;0.00
11849;BMP180;5983;49.966;8.052;2023-02-28T05:45:03;101571.00;;;0.00
11849;BMP180;5983;49.966;8.052;2023-02-28T05:47:30;101579.00;;;-0.10
11849;BMP180;5983;49.966;8.052;2023-02-28T05:49:57;101578.00;;;-0.10
11849;BMP180;5983;49.966;8.052;2023-02-28T05:52:25;101585.00;;;-0.10
11849;BMP180;5983;49.966;8.052;2023-02-28T05:54:54;101583.00;;;-0.10
11849;BMP180;5983;49.966;8.052;2023-02-28T05:57:21;101598.00;;;-0.10
11849;BMP180;5983;49.966;8.052;2023-02-28T05:59:48;101598.00;;;-0.10
11849;BMP180;5983;49.966;8.052;2023-02-28T06:02:17;101582.00;;;-0.10
11849;BMP180;5983;49.966;8.052;2023-02-28T06:04:44;101580.00;;;-0.10
11849;BMP180;5983;49.966;8.052;2023-02-28T06:07:15;101595.00;;;-0.10
11849;BMP180;5983;49.966;8.052;2023-02-28T06:09:43;101586.00;;;-0.10
11849;BMP180;5983;49.966;8.052;2023-02-28T06:12:14;101589.00;;;-0.10
11849;BMP180;5983;49.966;8.052;2023-02-28T06:14:41;101590.00;;;-0.10
11849;BMP180;5983;49.966;8.052;2023-02-28T06:17:10;101590.00;;;-0.10
11849;BMP180;5983;49.966;8.052;2023-02-28T06:19:37;101598.00;;;-0.10
11849;BMP180;5983;49.966;8.052;2023-02-28T06:22:05;101594.00;;;-0.10
11849;BMP180;5983;49.966;8.052;2023-02-28T06:24:32;101599.00;;;-0.10
11849;BMP180;5983;49.966;8.052;2023-02-28T06:26:59;101602.00;;;-0.10
11849;BMP180;5983;49.966;8.052;2023-02-28T06:29:32;101597.00;;;-0.10
11849;BMP180;5983;49.966;8.052;2023-02-28T06:31:59;101602.00;;;-0.10
11849;BMP180;5983;49.966;8.052;2023-02-28T06:34:27;101597.00;;;-0.10
11849;BMP180;5983;49.966;8.052;2023-02-28T06:36:54;101607.00;;;-0.10
11849;BMP180;5983;49.966;8.052;2023-02-28T06:39:27;101604.00;;;0.00
11849;BMP180;5983;49.966;8.052;2023-02-28T06:41:55;101615.00;;;0.00
11849;BMP180;5983;49.966;8.052;2023-02-28T06:44:23;101612.00;;;0.20
11849;BMP180;5983;49.966;8.052;2023-02-28T06:46:54;101618.00;;;0.40
11849;BMP180;5983;49.966;8.052;2023-02-28T06:49:21;101606.00;;;0.50
11849;BMP180;5983;49.966;8.052;2023-02-28T06:51:48;101617.00;;;0.70
11849;BMP180;5983;49.966;8.052;2023-02-28T06:54:15;101622.00;;;0.90
11849;BMP180;5983;49.966;8.052;2023-02-28T06:56:42;101622.00;;;1.10
11849;BMP180;5983;49.966;8.052;2023-02-28T06:59:09;101627.00;;;1.40
11849;BMP180;5983;49.966;8.052;2023-02-28T07:01:36;101628.00;;;1.70
11849;BMP180;5983;49.966;8.052;2023-02-28T07:04:06;101628.00;;;2.10
11849;BMP180;5983;49.966;8.052;2023-02-28T07:06:33;101625.00;;;2.50
11849;BMP180;5983;49.966;8.052;2023-02-28T07:09:00;101626.00;;;2.80
11849;BMP180;5983;49.966;8.052;2023-02-28T07:11:28;101635.00;;;3.20
11849;BMP180;5983;49.966;8.052;2023-02-28T07:13:56;101641.00;;;3.60
11849;BMP180;5983;49.966;8.052;2023-02-28T07:16:25;101647.00;;;4.00
11849;BMP180;5983;49.966;8.052;2023-02-28T07:18:52;101638.00;;;4.50
11849;BMP180;5983;49.966;8.052;2023-02-28T07:21:22;101646.00;;;4.90
11849;BMP180;5983;49.966;8.052;2023-02-28T07:23:49;101653.00;;;5.40
11849;BMP180;5983;49.966;8.052;2023-02-28T07:26:19;101651.00;;;5.90
11849;BMP180;5983;49.966;8.052;2023-02-28T07:28:48;101653.00;;;6.40
11849;BMP180;5983;49.966;8.052;2023-02-28T07:31:16;101659.00;;;7.00
11849;BMP180;5983;49.966;8.052;2023-02-28T07:33:44;101669.00;;;7.50
11849;BMP180;5983;49.966;8.052;2023-02-28T07:36:14;101673.00;;;8.30
11849;BMP180;5983;49.966;8.052;2023-02-28T07:38:45;101662.00;;;8.90
11849;BMP180;5983;49.966;8.052;2023-02-28T07:41:14;101670.00;;;9.60
11849;BMP180;5983;49.966;8.052;2023-02-28T07:43:42;101670.00;;;10.20
11849;BMP180;5983;49.966;8.052;2023-02-28T07:46:13;101665.00;;;10.70
11849;BMP180;5983;49.966;8.052;2023-02-28T07:48:41;101671.00;;;11.30
11849;BMP180;5983;49.966;8.052;2023-02-28T07:51:09;101675.00;;;12.20
11849;BMP180;5983;49.966;8.052;2023-02-28T07:53:36;101675.00;;;12.90
11849;BMP180;5983;49.966;8.052;2023-02-28T07:56:06;101689.00;;;13.50
11849;BMP180;5983;49.966;8.052;2023-02-28T07:58:34;101670.00;;;14.10
11849;BMP180;5983;49.966;8.052;2023-02-28T08:01:05;101678.00;;;14.70
11849;BMP180;5983;49.966;8.052;2023-02-28T08:03:33;101686.00;;;15.10
11849;BMP180;5983;49.966;8.052;2023-02-28T08:06:01;101683.00;;;15.40
11849;BMP180;5983;49.966;8.052;2023-02-28T08:08:28;101684.00;;;15.70
11849;BMP180;5983;49.966;8.052;2023-02-28T08:10:59;101682.00;;;16.10
11849;BMP180;5983;49.966;8.052;2023-02-28T08:13:30;101696.00;;;16.30
11849;BMP180;5983;49.966;8.052;2023-02-28T08:15:57;101688.00;;;16.10
11849;BMP180;5983;49.966;8.052;2023-02-28T08:18:24;101706.00;;;16.20
11849;BMP180;5983;49.966;8.052;2023-02-28T08:20:51;101701.00;;;15.10
11849;BMP180;5983;49.966;8.052;2023-02-28T08:23:18;101692.00;;;13.90
11849;BMP180;5983;49.966;8.052;2023-02-28T08:25:52;101698.00;;;14.00
11849;BMP180;5983;49.966;8.052;2023-02-28T08:28:20;101703.00;;;14.90
11849;BMP180;5983;49.966;8.052;2023-02-28T08:30:48;101703.00;;;15.30
11849;BMP180;5983;49.966;8.052;2023-02-28T08:33:15;101704.00;;;15.20
11849;BMP180;5983;49.966;8.052;2023-02-28T08:35:42;101699.00;;;15.80
11849;BMP180;5983;49.966;8.052;2023-02-28T08:38:09;101703.00;;;16.30
11849;BMP180;5983;49.966;8.052;2023-02-28T08:40:36;101701.00;;;15.90
11849;BMP180;5983;49.966;8.052;2023-02-28T08:43:03;101707.00;;;14.40
11849;BMP180;5983;49.966;8.052;2023-02-28T08:45:30;101700.00;;;13.00
11849;BMP180;5983;49.966;8.052;2023-02-28T08:47:59;101698.00;;;12.50
11849;BMP180;5983;49.966;8.052;2023-02-28T08:50:25;101700.00;;;12.40
11849;BMP180;5983;49.966;8.052;2023-02-28T08:52:53;101709.00;;;12.60
11849;BMP180;5983;49.966;8.052;2023-02-28T08:55:20;101707.00;;;12.90
11849;BMP180;5983;49.966;8.052;2023-02-28T08:57:47;101707.00;;;12.80
11849;BMP180;5983;49.966;8.052;2023-02-28T09:00:15;101702.00;;;12.50
11849;BMP180;5983;49.966;8.052;2023-02-28T09:02:42;101704.00;;;12.00
11849;BMP180;5983;49.966;8.052;2023-02-28T09:05:10;101699.00;;;11.60
11849;BMP180;5983;49.966;8.052;2023-02-28T09:07:37;101700.00;;;11.10
11849;BMP180;5983;49.966;8.052;2023-02-28T09:10:05;101705.00;;;10.30
11849;BMP180;5983;49.966;8.052;2023-02-28T09:12:34;101692.00;;;9.70
11849;BMP180;5983;49.966;8.052;2023-02-28T09:15:02;101690.00;;;9.30
11849;BMP180;5983;49.966;8.052;2023-02-28T09:17:29;101694.00;;;9.20
11849;BMP180;5983;49.966;8.052;2023-02-28T09:19:56;101689.00;;;9.50
11849;BMP180;5983;49.966;8.052;2023-02-28T09:22:25;101689.00;;;9.90
11849;BMP180;5983;49.966;8.052;2023-02-28T09:24:52;101699.00;;;11.20
11849;BMP180;5983;49.966;8.052;2023-02-28T09:27:19;101705.00;;;13.30
11849;BMP180;5983;49.966;8.052;2023-02-28T09:29:46;101701.00;;;15.20
11849;BMP180;5983;49.966;8.052;2023-02-28T09:32:13;101722.00;;;16.70
11849;BMP180;5983;49.966;8.052;2023-02-28T09:34:40;101712.00;;;17.80
11849;BMP180;5983;49.966;8.052;2023-02-28T09:37:07;101719.00;;;18.10
11849;BMP180;5983;49.966;8.052;2023-02-28T09:39:35;101714.00;;;18.70
11849;BMP180;5983;49.966;8.052;2023-02-28T09:42:04;101726.00;;;19.00
11849;BMP180;5983;49.966;8.052;2023-02-28T09:44:38;101724.00;;;19.40
11849;BMP180;5983;49.966;8.052;2023-02-28T09:47:14;101717.00;;;19.50
11849;BMP180;5983;49.966;8.052;2023-02-28T09:49:47;101708.00;;;19.70
11849;BMP180;5983;49.966;8.052;2023-02-28T09:52:17;101707.00;;;20.00
11849;BMP180;5983;49.966;8.052;2023-02-28T09:54:46;101704.00;;;20.30
11849;BMP180;5983;49.966;8.052;2023-02-28T09:57:21;101728.00;;;21.20
11849;BMP180;5983;49.966;8.052;2023-02-28T10:00:03;101735.00;;;21.30
11849;BMP180;5983;49.966;8.052;2023-02-28T10:05:48;101729.00;;;20.70
11849;BMP180;5983;49.966;8.052;2023-02-28T10:08:23;101727.00;;;20.40
11849;BMP180;5983;49.966;8.052;2023-02-28T10:10:57;101726.00;;;18.80
11849;BMP180;5983;49.966;8.052;2023-02-28T10:13:32;101721.00;;;18.20
11849;BMP180;5983;49.966;8.052;2023-02-28T10:16:06;101719.00;;;18.60
11849;BMP180;5983;49.966;8.052;2023-02-28T10:18:46;101731.00;;;18.70
11849;BMP180;5983;49.966;8.052;2023-02-28T10:21:21;101730.00;;;19.40
11849;BMP180;5983;49.966;8.052;2023-02-28T10:23:59;101722.00;;;19.10
11849;BMP180;5983;49.966;8.052;2023-02-28T10:26:32;101729.00;;;18.70
11849;BMP180;5983;49.966;8.052;2023-02-28T10:29:00;101724.00;;;18.00
11849;BMP180;5983;49.966;8.052;2023-02-28T10:31:28;101727.00;;;19.00
11849;BMP180;5983;49.966;8.052;2023-02-28T10:33:55;101724.00;;;19.50
11849;BMP180;5983;49.966;8.052;2023-02-28T10:36:22;101716.00;;;20.10
11849;BMP180;5983;49.966;8.052;2023-02-28T10:38:49;101720.00;;;19.10
11849;BMP180;5983;49.966;8.052;2023-02-28T10:41:30;101727.00;;;17.90
11849;BMP180;5983;49.966;8.052;2023-02-28T10:44:19;101724.00;;;19.00
11849;BMP180;5983;49.966;8.052;2023-02-28T10:46:48;101724.00;;;20.10
11849;BMP180;5983;49.966;8.052;2023-02-28T10:49:21;101715.00;;;20.90
11849;BMP180;5983;49.966;8.052;2023-02-28T10:51:53;101737.00;;;21.50
11849;BMP180;5983;49.966;8.052;2023-02-28T10:54:29;101730.00;;;22.00
11849;BMP180;5983;49.966;8.052;2023-02-28T10:57:16;101718.00;;;21.50
11849;BMP180;5983;49.966;8.052;2023-02-28T10:59:44;101716.00;;;20.50
11849;BMP180;5983;49.966;8.052;2023-02-28T11:02:32;101720.00;;;18.60
11849;BMP180;5983;49.966;8.052;2023-02-28T11:04:59;101717.00;;;16.70
11849;BMP180;5983;49.966;8.052;2023-02-28T11:07:27;101705.00;;;15.30
11849;BMP180;5983;49.966;8.052;2023-02-28T11:09:56;101705.00;;;16.00
11849;BMP180;5983;49.966;8.052;2023-02-28T11:12:29;101707.00;;;17.70
11849;BMP180;5983;49.966;8.052;2023-02-28T11:15:02;101708.00;;;19.20
11849;BMP180;5983;49.966;8.052;2023-02-28T11:17:31;101698.00;;;19.40
11849;BMP180;5983;49.966;8.052;2023-02-28T11:20:02;101701.00;;;20.20
11849;BMP180;5983;49.966;8.052;2023-02-28T11:22:35;101702.00;;;20.70
11849;BMP180;5983;49.966;8.052;2023-02-28T11:25:09;101697.00;;;18.90
11849;BMP180;5983;49.966;8.052;2023-02-28T11:27:50;101692.00;;;16.90
11849;BMP180;5983;49.966;8.052;2023-02-28T11:30:33;101680.00;;;17.00
11849;BMP180;5983;49.966;8.052;2023-02-28T11:33:21;101687.00;;;18.40
11849;BMP180;5983;49.966;8.052;2023-02-28T11:35:50;101686.00;;;19.80
11849;BMP180;5983;49.966;8.052;2023-02-28T11:38:17;101685.00;;;21.00
11849;BMP180;5983;49.966;8.052;2023-02-28T11:40:58;101682.00;;;19.80
11849;BMP180;5983;49.966;8.052;2023-02-28T11:43:49;101682.00;;;18.60
11849;BMP180;5983;49.966;8.052;2023-02-28T11:46:30;101690.00;;;18.10
11849;BMP180;5983;49.966;8.052;2023-02-28T11:49:19;101687.00;;;16.40
11849;BMP180;5983;49.966;8.052;2023-02-28T11:51:54;101674.00;;;16.50
11849;BMP180;5983;49.966;8.052;2023-02-28T11:54:41;101681.00;;;17.90
11849;BMP180;5983;49.966;8.052;2023-02-28T12:00:48;101676.00;;;18.30
11849;BMP180;5983;49.966;8.052;2023-02-28T12:03:30;101682.00;;;18.90
11849;BMP180;5983;49.966;8.052;2023-02-28T12:06:16;101674.00;;;19.00
11849;BMP180;5983;49.966;8.052;2023-02-28T12:08:57;101684.00;;;19.60
11849;BMP180;5983;49.966;8.052;2023-02-28T12:11:41;101680.00;;;20.20
11849;BMP180;5983;49.966;8.052;2023-02-28T12:14:46;101689.00;;;20.60
11849;BMP180;5983;49.966;8.052;2023-02-28T12:17:32;101684.00;;;21.50
11849;BMP180;5983;49.966;8.052;2023-02-28T12:20:17;101693.00;;;22.50
11849;BMP180;5983;49.966;8.052;2023-02-28T12:23:04;101684.00;;;23.10
11849;BMP180;5983;49.966;8.052;2023-02-28T12:25:52;101672.00;;;22.90
11849;BMP180;5983;49.966;8.052;2023-02-28T12:28:25;101679.00;;;22.50
11849;BMP180;5983;49.966;8.052;2023-02-28T12:31:00;101671.00;;;22.90
11849;BMP180;5983;49.966;8.052;2023-02-28T12:33:36;101673.00;;;21.60
11849;BMP180;5983;49.966;8.052;2023-02-28T12:36:10;101669.00;;;22.20
11849;BMP180;5983;49.966;8.052;2023-02-28T12:38:43;101657.00;;;22.60
11849;BMP180;5983;49.966;8.052;2023-02-28T12:41:15;101666.00;;;23.00
11849;BMP180;5983;49.966;8.052;2023-02-28T12:43:46;101670.00;;;23.70
11849;BMP180;5983;49.966;8.052;2023-02-28T12:46:19;101665.00;;;24.40
11849;BMP180;5983;49.966;8.052;2023-02-28T12:48:53;101673.00;;;24.00
11849;BMP180;5983;49.966;8.052;2023-02-28T12:51:24;101676.00;;;24.00
11849;BMP180;5983;49.966;8.052;2023-02-28T12:54:06;101667.00;;;23.60
11849;BMP180;5983;49.966;8.052;2023-02-28T12:56:44;101666.00;;;23.10
11849;BMP180;5983;49.966;8.052;2023-02-28T12:59:22;101670.00;;;22.40
11849;BMP180;5983;49.966;8.052;2023-02-28T13:05:49;101666.00;;;22.90
11849;BMP180;5983;49.966;8.052;2023-02-28T13:08:56;101667.00;;;22.80
11849;BMP180;5983;49.966;8.052;2023-02-28T13:11:28;101664.00;;;22.80
11849;BMP180;5983;49.966;8.052;2023-02-28T13:14:02;101667.00;;;22.80
11849;BMP180;5983;49.966;8.052;2023-02-28T13:16:54;101652.00;;;22.90
11849;BMP180;5983;49.966;8.052;2023-02-28T13:19:24;101661.00;;;23.40
11849;BMP180;5983;49.966;8.052;2023-02-28T13:21:54;101668.00;;;23.30
11849;BMP180;5983;49.966;8.052;2023-02-28T13:24:46;101660.00;;;23.10
11849;BMP180;5983;49.966;8.052;2023-02-28T13:27:33;101665.00;;;23.30
11849;BMP180;5983;49.966;8.052;2023-02-28T13:33:27;101660.00;;;23.40
11849;BMP180;5983;49.966;8.052;2023-02-28T13:36:22;101660.00;;;23.60
11849;BMP180;5983;49.966;8.052;2023-02-28T13:38:52;101667.00;;;23.40
11849;BMP180;5983;49.966;8.052;2023-02-28T13:41:46;101659.00;;;23.50
11849;BMP180;5983;49.966;8.052;2023-02-28T13:44:17;101655.00;;;22.70
11849;BMP180;5983;49.966;8.052;2023-02-28T13:47:21;101650.00;;;22.90
11849;BMP180;5983;49.966;8.052;2023-02-28T13:49:51;101654.00;;;22.60
11849;BMP180;5983;49.966;8.052;2023-02-28T13:52:24;101654.00;;;22.20
11849;BMP180;5983;49.966;8.052;2023-02-28T13:55:24;101655.00;;;22.40
11849;BMP180;5983;49.966;8.052;2023-02-28T13:58:25;101660.00;;;22.70
11849;BMP180;5983;49.966;8.052;2023-02-28T14:01:21;101654.00;;;23.00
11849;BMP180;5983;49.966;8.052;2023-02-28T14:07:20;101647.00;;;21.80
11849;BMP180;5983;49.966;8.052;2023-02-28T14:09:56;101644.00;;;21.90
11849;BMP180;5983;49.966;8.052;2023-02-28T14:15:59;101651.00;;;21.60
11849;BMP180;5983;49.966;8.052;2023-02-28T14:18:31;101636.00;;;21.60
11849;BMP180;5983;49.966;8.052;2023-02-28T14:21:09;101635.00;;;21.30
11849;BMP180;5983;49.966;8.052;2023-02-28T14:24:25;101645.00;;;20.70
11849;BMP180;5983;49.966;8.052;2023-02-28T14:27:40;101640.00;;;20.80
11849;BMP180;5983;49.966;8.052;2023-02-28T14:30:51;101642.00;;;20.30
11849;BMP180;5983;49.966;8.052;2023-02-28T14:33:47;101631.00;;;20.40
11849;BMP180;5983;49.966;8.052;2023-02-28T14:36:23;101642.00;;;20.00
11849;BMP180;5983;49.966;8.052;2023-02-28T14:38:55;101635.00;;;19.30
11849;BMP180;5983;49.966;8.052;2023-02-28T14:41:29;101628.00;;;19.40
11849;BMP180;5983;49.966;8.052;2023-02-28T14:43:58;101634.00;;;19.40
11849;BMP180;5983;49.966;8.052;2023-02-28T14:46:32;101631.00;;;19.00
11849;BMP180;5983;49.966;8.052;2023-02-28T14:49:04;101622.00;;;18.20
11849;BMP180;5983;49.966;8.052;2023-02-28T14:51:33;101619.00;;;17.50
11849;BMP180;5983;49.966;8.052;2023-02-28T14:54:02;101613.00;;;16.70
11849;BMP180;5983;49.966;8.052;2023-02-28T14:56:35;101603.00;;;15.90
11849;BMP180;5983;49.966;8.052;2023-02-28T14:59:04;101609.00;;;15.10
11849;BMP180;5983;49.966;8.052;2023-02-28T15:01:31;101595.00;;;14.30
11849;BMP180;5983;49.966;8.052;2023-02-28T15:04:04;101599.00;;;13.50
11849;BMP180;5983;49.966;8.052;2023-02-28T15:06:32;101593.00;;;12.90
11849;BMP180;5983;49.966;8.052;2023-02-28T15:09:13;101609.00;;;12.30
11849;BMP180;5983;49.966;8.052;2023-02-28T15:11:41;101599.00;;;11.70
11849;BMP180;5983;49.966;8.052;2023-02-28T15:14:18;101592.00;;;11.30
11849;BMP180;5983;49.966;8.052;2023-02-28T15:16:50;101586.00;;;11.10
11849;BMP180;5983;49.966;8.052;2023-02-28T15:19:23;101593.00;;;10.80